sensor_id;sensor_type;location;lat;lon;timestamp;temperature;humidity
21612;DHT22;47005;52.292;13.452;2024-03-22T00:00:15;10.20;99.90
21612;DHT22;47005;52.292;13.452;2024-03-22T00:02:41;10.20;99.90
21612;DHT22;47005;52.292;13.452;2024-03-22T00:05:07;10.20;99.90
21612;DHT22;47005;52.292;13.452;2024-03-22T00:07:32;10.20;99.90
21612;DHT22;47005;52.292;13.452;2024-03-22T00:09:58;10.20;99.90
21612;DHT22;47005;52.292;13.452;2024-03-22T00:12:24;10.10;99.90
21612;DHT22;47005;52.292;13.452;2024-03-22T00:14:49;10.10;99.90
21612;DHT22;47005;52.292;13.452;2024-03-22T00:17:16;10.10;99.90
21612;DHT22;47005;52.292;13.452;2024-03-22T00:19:42;10.10;99.90
21612;DHT22;47005;52.292;13.452;2024-03-22T00:22:09;10.10;99.90
21612;DHT22;47005;52.292;13.452;2024-03-22T00:24:34;10.10;99.90
21612;DHT22;47005;52.292;13.452;2024-03-22T00:27:00;10.00;99.90
21612;DHT22;47005;52.292;13.452;2024-03-22T00:29:25;10.00;99.90
21612;DHT22;47005;52.292;13.452;2024-03-22T00:31:52;10.00;99.90
21612;DHT22;47005;52.292;13.452;2024-03-22T00:34:18;10.10;99.90
21612;DHT22;47005;52.292;13.452;2024-03-22T00:36:45;10.10;99.90
21612;DHT22;47005;52.292;13.452;2024-03-22T00:39:11;10.10;99.90
21612;DHT22;47005;52.292;13.452;2024-03-22T00:41:38;10.10;99.90
21612;DHT22;47005;52.292;13.452;2024-03-22T00:44:03;10.10;99.90
21612;DHT22;47005;52.292;13.452;2024-03-22T00:46:29;10.10;99.90
21612;DHT22;47005;52.292;13.452;2024-03-22T00:48:55;10.10;99.90
21612;DHT22;47005;52.292;13.452;2024-03-22T00:51:20;10.10;99.90
21612;DHT22;47005;52.292;13.452;2024-03-22T00:53:46;10.00;99.90
21612;DHT22;47005;52.292;13.452;2024-03-22T00:56:11;10.10;99.90
21612;DHT22;47005;52.292;13.452;2024-03-22T00:58:37;10.10;99.90
21612;DHT22;47005;52.292;13.452;2024-03-22T01:01:03;10.10;99.90
21612;DHT22;47005;52.292;13.452;2024-03-22T01:03:28;10.10;99.90
21612;DHT22;47005;52.292;13.452;2024-03-22T01:05:54;10.10;99.90
21612;DHT22;47005;52.292;13.452;2024-03-22T01:08:20;10.00;99.90
21612;DHT22;47005;52.292;13.452;2024-03-22T01:10:45;10.00;99.90
21612;DHT22;47005;52.292;13.452;2024-03-22T01:13:11;10.00;99.90
21612;DHT22;47005;52.292;13.452;2024-03-22T01:15:36;10.00;99.90
21612;DHT22;47005;52.292;13.452;2024-03-22T01:18:02;10.00;99.90
21612;DHT22;47005;52.292;13.452;2024-03-22T01:20:28;10.00;99.90
21612;DHT22;47005;52.292;13.452;2024-03-22T01:22:54;10.00;99.90
21612;DHT22;47005;52.292;13.452;2024-03-22T01:25:20;10.00;99.90
21612;DHT22;47005;52.292;13.452;2024-03-22T01:27:45;10.00;99.90
21612;DHT22;47005;52.292;13.452;2024-03-22T01:30:11;10.00;99.90
21612;DHT22;47005;52.292;13.452;2024-03-22T01:32:37;10.00;99.90
21612;DHT22;47005;52.292;13.452;2024-03-22T01:35:03;10.00;99.90
21612;DHT22;47005;52.292;13.452;2024-03-22T01:37:28;10.00;99.90
21612;DHT22;47005;52.292;13.452;2024-03-22T01:39:54;10.00;99.90
21612;DHT22;47005;52.292;13.452;2024-03-22T01:42:20;10.00;99.90
21612;DHT22;47005;52.292;13.452;2024-03-22T01:44:45;10.00;99.90
21612;DHT22;47005;52.292;13.452;2024-03-22T01:47:11;10.00;99.90
21612;DHT22;47005;52.292;13.452;2024-03-22T01:49:37;10.00;99.90
21612;DHT22;47005;52.292;13.452;2024-03-22T01:52:03;10.00;99.90
21612;DHT22;47005;52.292;13.452;2024-03-22T01:54:29;9.90;99.90
21612;DHT22;47005;52.292;13.452;2024-03-22T01:56:56;10.00;99.90
21612;DHT22;47005;52.292;13.452;2024-03-22T01:59:22;10.00;99.90
21612;DHT22;47005;52.292;13.452;2024-03-22T02:01:47;10.00;99.90
21612;DHT22;47005;52.292;13.452;2024-03-22T02:04:14;10.00;99.90
21612;DHT22;47005;52.292;13.452;2024-03-22T02:06:40;10.00;99.90
21612;DHT22;47005;52.292;13.452;2024-03-22T02:09:06;10.00;99.90
21612;DHT22;47005;52.292;13.452;2024-03-22T02:11:36;10.00;99.90
21612;DHT22;47005;52.292;13.452;2024-03-22T02:14:03;10.00;99.90
21612;DHT22;47005;52.292;13.452;2024-03-22T02:16:29;10.00;99.90
21612;DHT22;47005;52.292;13.452;2024-03-22T02:18:55;10.00;99.90
21612;DHT22;47005;52.292;13.452;2024-03-22T02:21:20;10.00;99.90
21612;DHT22;47005;52.292;13.452;2024-03-22T02:23:46;10.00;99.90
21612;DHT22;47005;52.292;13.452;2024-03-22T02:26:12;10.00;99.90
21612;DHT22;47005;52.292;13.452;2024-03-22T02:28:37;10.00;99.90
21612;DHT22;47005;52.292;13.452;2024-03-22T02:31:03;10.00;99.90
21612;DHT22;47005;52.292;13.452;2024-03-22T02:33:29;10.00;99.90
21612;DHT22;47005;52.292;13.452;2024-03-22T02:35:55;10.00;99.90
21612;DHT22;47005;52.292;13.452;2024-03-22T02:38:21;10.00;99.90
21612;DHT22;47005;52.292;13.452;2024-03-22T02:40:49;10.00;99.90
21612;DHT22;47005;52.292;13.452;2024-03-22T02:43:15;10.00;99.90
21612;DHT22;47005;52.292;13.452;2024-03-22T02:45:43;10.00;99.90
21612;DHT22;47005;52.292;13.452;2024-03-22T02:48:08;10.00;99.90
21612;DHT22;47005;52.292;13.452;2024-03-22T02:50:37;9.90;99.90
21612;DHT22;47005;52.292;13.452;2024-03-22T02:53:04;9.90;99.90
21612;DHT22;47005;52.292;13.452;2024-03-22T02:55:30;9.90;99.90
21612;DHT22;47005;52.292;13.452;2024-03-22T02:57:56;9.90;99.90
21612;DHT22;47005;52.292;13.452;2024-03-22T03:00:23;9.90;99.90
21612;DHT22;47005;52.292;13.452;2024-03-22T03:02:49;9.90;99.90
21612;DHT22;47005;52.292;13.452;2024-03-22T03:05:14;9.90;99.90
21612;DHT22;47005;52.292;13.452;2024-03-22T03:07:40;9.90;99.90
21612;DHT22;47005;52.292;13.452;2024-03-22T03:10:06;9.90;99.90
21612;DHT22;47005;52.292;13.452;2024-03-22T03:12:32;9.90;99.90
21612;DHT22;47005;52.292;13.452;2024-03-22T03:14:58;10.00;99.90
21612;DHT22;47005;52.292;13.452;2024-03-22T03:17:23;9.90;99.90
21612;DHT22;47005;52.292;13.452;2024-03-22T03:19:49;9.90;99.90
21612;DHT22;47005;52.292;13.452;2024-03-22T03:22:15;10.00;99.90
21612;DHT22;47005;52.292;13.452;2024-03-22T03:24:40;9.90;99.90
21612;DHT22;47005;52.292;13.452;2024-03-22T03:27:06;10.00;99.90
21612;DHT22;47005;52.292;13.452;2024-03-22T03:29:32;9.90;99.90
21612;DHT22;47005;52.292;13.452;2024-03-22T03:31:58;9.90;99.90
21612;DHT22;47005;52.292;13.452;2024-03-22T03:34:23;9.90;99.90
21612;DHT22;47005;52.292;13.452;2024-03-22T03:36:49;9.90;99.90
21612;DHT22;47005;52.292;13.452;2024-03-22T03:39:15;9.90;99.90
21612;DHT22;47005;52.292;13.452;2024-03-22T03:41:40;9.90;99.90
21612;DHT22;47005;52.292;13.452;2024-03-22T03:44:06;9.90;99.90
21612;DHT22;47005;52.292;13.452;2024-03-22T03:46:32;9.90;99.90
21612;DHT22;47005;52.292;13.452;2024-03-22T03:48:57;9.90;99.90
21612;DHT22;47005;52.292;13.452;2024-03-22T03:51:23;9.90;99.90
21612;DHT22;47005;52.292;13.452;2024-03-22T03:53:48;9.90;99.90
21612;DHT22;47005;52.292;13.452;2024-03-22T03:56:14;9.90;99.90
21612;DHT22;47005;52.292;13.452;2024-03-22T03:58:40;9.90;99.90
21612;DHT22;47005;52.292;13.452;2024-03-22T04:01:06;9.90;99.90
21612;DHT22;47005;52.292;13.452;2024-03-22T04:03:32;9.90;99.90
21612;DHT22;47005;52.292;13.452;2024-03-22T04:05:58;9.90;99.90
21612;DHT22;47005;52.292;13.452;2024-03-22T04:08:25;9.90;99.90
21612;DHT22;47005;52.292;13.452;2024-03-22T04:10:55;9.90;99.90
21612;DHT22;47005;52.292;13.452;2024-03-22T04:13:25;9.90;99.90
21612;DHT22;47005;52.292;13.452;2024-03-22T04:15:50;9.90;99.90
21612;DHT22;47005;52.292;13.452;2024-03-22T04:18:16;9.90;99.90
21612;DHT22;47005;52.292;13.452;2024-03-22T04:20:42;9.90;99.90
21612;DHT22;47005;52.292;13.452;2024-03-22T04:23:09;9.90;99.90
21612;DHT22;47005;52.292;13.452;2024-03-22T04:25:35;9.90;99.90
21612;DHT22;47005;52.292;13.452;2024-03-22T04:28:00;9.90;99.90
21612;DHT22;47005;52.292;13.452;2024-03-22T04:30:26;9.90;99.90
21612;DHT22;47005;52.292;13.452;2024-03-22T04:32:51;10.00;99.90
21612;DHT22;47005;52.292;13.452;2024-03-22T04:35:17;9.90;99.90
21612;DHT22;47005;52.292;13.452;2024-03-22T04:37:43;9.90;99.90
21612;DHT22;47005;52.292;13.452;2024-03-22T04:40:09;9.90;99.90
21612;DHT22;47005;52.292;13.452;2024-03-22T04:42:37;9.90;99.90
21612;DHT22;47005;52.292;13.452;2024-03-22T04:45:03;9.90;99.90
21612;DHT22;47005;52.292;13.452;2024-03-22T04:47:29;9.90;99.90
21612;DHT22;47005;52.292;13.452;2024-03-22T04:49:54;10.00;99.90
21612;DHT22;47005;52.292;13.452;2024-03-22T04:52:20;10.00;99.90
21612;DHT22;47005;52.292;13.452;2024-03-22T04:54:46;9.90;99.90
21612;DHT22;47005;52.292;13.452;2024-03-22T04:57:13;10.00;99.90
21612;DHT22;47005;52.292;13.452;2024-03-22T04:59:38;10.00;99.90
21612;DHT22;47005;52.292;13.452;2024-03-22T05:02:04;10.00;99.90
21612;DHT22;47005;52.292;13.452;2024-03-22T05:04:30;10.00;99.90
21612;DHT22;47005;52.292;13.452;2024-03-22T05:06:55;10.00;99.90
21612;DHT22;47005;52.292;13.452;2024-03-22T05:09:21;10.00;99.90
21612;DHT22;47005;52.292;13.452;2024-03-22T05:11:46;10.00;99.90
21612;DHT22;47005;52.292;13.452;2024-03-22T05:14:15;10.00;99.90
21612;DHT22;47005;52.292;13.452;2024-03-22T05:16:41;10.00;99.90
21612;DHT22;47005;52.292;13.452;2024-03-22T05:19:07;10.00;99.90
21612;DHT22;47005;52.292;13.452;2024-03-22T05:21:33;10.00;99.90
21612;DHT22;47005;52.292;13.452;2024-03-22T05:23:58;10.00;99.90
21612;DHT22;47005;52.292;13.452;2024-03-22T05:26:24;10.00;99.90
21612;DHT22;47005;52.292;13.452;2024-03-22T05:28:49;10.00;99.90
21612;DHT22;47005;52.292;13.452;2024-03-22T05:31:15;10.00;99.90
21612;DHT22;47005;52.292;13.452;2024-03-22T05:33:40;10.00;99.90
21612;DHT22;47005;52.292;13.452;2024-03-22T05:36:06;10.00;99.90
21612;DHT22;47005;52.292;13.452;2024-03-22T05:38:32;10.00;99.90
21612;DHT22;47005;52.292;13.452;2024-03-22T05:40:58;10.00;99.90
21612;DHT22;47005;52.292;13.452;2024-03-22T05:43:24;10.00;99.90
21612;DHT22;47005;52.292;13.452;2024-03-22T05:45:49;10.00;99.90
21612;DHT22;47005;52.292;13.452;2024-03-22T05:48:15;10.00;99.90
21612;DHT22;47005;52.292;13.452;2024-03-22T05:50:41;10.00;99.90
21612;DHT22;47005;52.292;13.452;2024-03-22T05:53:06;10.00;99.90
21612;DHT22;47005;52.292;13.452;2024-03-22T05:55:32;10.00;99.90
21612;DHT22;47005;52.292;13.452;2024-03-22T05:57:57;10.10;99.90
21612;DHT22;47005;52.292;13.452;2024-03-22T06:00:23;10.00;99.90
21612;DHT22;47005;52.292;13.452;2024-03-22T06:02:49;10.10;99.90
21612;DHT22;47005;52.292;13.452;2024-03-22T06:05:14;10.00;99.90
21612;DHT22;47005;52.292;13.452;2024-03-22T06:07:40;10.00;99.90
21612;DHT22;47005;52.292;13.452;2024-03-22T06:10:08;10.00;99.90
21612;DHT22;47005;52.292;13.452;2024-03-22T06:12:35;10.10;99.90
21612;DHT22;47005;52.292;13.452;2024-03-22T06:15:01;10.10;99.90
21612;DHT22;47005;52.292;13.452;2024-03-22T06:17:30;10.10;99.90
21612;DHT22;47005;52.292;13.452;2024-03-22T06:19:56;10.10;99.90
21612;DHT22;47005;52.292;13.452;2024-03-22T06:22:21;10.10;99.90
21612;DHT22;47005;52.292;13.452;2024-03-22T06:24:47;10.20;99.90
21612;DHT22;47005;52.292;13.452;2024-03-22T06:27:12;10.10;99.90
21612;DHT22;47005;52.292;13.452;2024-03-22T06:29:39;10.10;99.90
21612;DHT22;47005;52.292;13.452;2024-03-22T06:32:05;10.20;99.90
21612;DHT22;47005;52.292;13.452;2024-03-22T06:34:31;10.20;99.90
21612;DHT22;47005;52.292;13.452;2024-03-22T06:36:57;10.20;99.90
21612;DHT22;47005;52.292;13.452;2024-03-22T06:39:22;10.20;99.90
21612;DHT22;47005;52.292;13.452;2024-03-22T06:41:48;10.20;99.90
21612;DHT22;47005;52.292;13.452;2024-03-22T06:44:13;10.20;99.90
21612;DHT22;47005;52.292;13.452;2024-03-22T06:46:39;10.30;99.90
21612;DHT22;47005;52.292;13.452;2024-03-22T06:49:05;10.30;99.90
21612;DHT22;47005;52.292;13.452;2024-03-22T06:51:31;10.30;99.90
21612;DHT22;47005;52.292;13.452;2024-03-22T06:53:56;10.30;99.90
21612;DHT22;47005;52.292;13.452;2024-03-22T06:56:22;10.30;99.90
21612;DHT22;47005;52.292;13.452;2024-03-22T06:58:47;10.30;99.90
21612;DHT22;47005;52.292;13.452;2024-03-22T07:01:13;10.30;99.90
21612;DHT22;47005;52.292;13.452;2024-03-22T07:03:39;10.40;99.90
21612;DHT22;47005;52.292;13.452;2024-03-22T07:06:05;10.30;99.90
21612;DHT22;47005;52.292;13.452;2024-03-22T07:08:33;10.40;99.90
21612;DHT22;47005;52.292;13.452;2024-03-22T07:11:08;10.40;99.90
21612;DHT22;47005;52.292;13.452;2024-03-22T07:13:38;10.40;99.90
21612;DHT22;47005;52.292;13.452;2024-03-22T07:16:04;10.40;99.90
21612;DHT22;47005;52.292;13.452;2024-03-22T07:18:30;10.50;99.90
21612;DHT22;47005;52.292;13.452;2024-03-22T07:20:56;10.50;99.90
21612;DHT22;47005;52.292;13.452;2024-03-22T07:23:23;10.50;99.90
21612;DHT22;47005;52.292;13.452;2024-03-22T07:25:48;10.50;99.90
21612;DHT22;47005;52.292;13.452;2024-03-22T07:28:14;10.50;99.90
21612;DHT22;47005;52.292;13.452;2024-03-22T07:30:41;10.60;99.90
21612;DHT22;47005;52.292;13.452;2024-03-22T07:33:07;10.60;99.90
21612;DHT22;47005;52.292;13.452;2024-03-22T07:35:34;10.60;99.90
21612;DHT22;47005;52.292;13.452;2024-03-22T07:38:00;10.70;99.90
21612;DHT22;47005;52.292;13.452;2024-03-22T07:40:26;10.70;99.90
21612;DHT22;47005;52.292;13.452;2024-03-22T07:42:51;10.70;99.90
21612;DHT22;47005;52.292;13.452;2024-03-22T07:45:17;10.70;99.90
21612;DHT22;47005;52.292;13.452;2024-03-22T07:47:42;10.80;99.90
21612;DHT22;47005;52.292;13.452;2024-03-22T07:50:09;10.80;99.90
21612;DHT22;47005;52.292;13.452;2024-03-22T07:52:35;10.80;99.90
21612;DHT22;47005;52.292;13.452;2024-03-22T07:55:00;10.90;99.90
21612;DHT22;47005;52.292;13.452;2024-03-22T07:57:28;10.90;99.90
21612;DHT22;47005;52.292;13.452;2024-03-22T07:59:59;10.90;99.90
21612;DHT22;47005;52.292;13.452;2024-03-22T08:02:24;10.90;99.90
21612;DHT22;47005;52.292;13.452;2024-03-22T08:04:50;10.90;99.90
21612;DHT22;47005;52.292;13.452;2024-03-22T08:07:16;10.90;99.90
21612;DHT22;47005;52.292;13.452;2024-03-22T08:09:41;10.90;99.90
21612;DHT22;47005;52.292;13.452;2024-03-22T08:12:07;10.90;99.90
21612;DHT22;47005;52.292;13.452;2024-03-22T08:14:33;10.90;99.90
21612;DHT22;47005;52.292;13.452;2024-03-22T08:16:58;11.00;99.90
21612;DHT22;47005;52.292;13.452;2024-03-22T08:19:24;11.00;99.90
21612;DHT22;47005;52.292;13.452;2024-03-22T08:21:50;11.00;99.90
21612;DHT22;47005;52.292;13.452;2024-03-22T08:24:15;11.00;99.90
21612;DHT22;47005;52.292;13.452;2024-03-22T08:26:41;11.10;99.90
21612;DHT22;47005;52.292;13.452;2024-03-22T08:29:10;11.10;99.90
21612;DHT22;47005;52.292;13.452;2024-03-22T08:31:36;11.10;99.90
21612;DHT22;47005;52.292;13.452;2024-03-22T08:34:02;11.10;99.90
21612;DHT22;47005;52.292;13.452;2024-03-22T08:36:29;11.20;99.90
21612;DHT22;47005;52.292;13.452;2024-03-22T08:38:54;11.20;99.90
21612;DHT22;47005;52.292;13.452;2024-03-22T08:41:20;11.20;99.90
21612;DHT22;47005;52.292;13.452;2024-03-22T08:43:46;11.20;99.90
21612;DHT22;47005;52.292;13.452;2024-03-22T08:46:11;11.20;99.90
21612;DHT22;47005;52.292;13.452;2024-03-22T08:48:37;11.30;99.90
21612;DHT22;47005;52.292;13.452;2024-03-22T08:51:02;11.30;99.90
21612;DHT22;47005;52.292;13.452;2024-03-22T08:53:28;11.30;99.90
21612;DHT22;47005;52.292;13.452;2024-03-22T08:55:54;11.30;99.90
21612;DHT22;47005;52.292;13.452;2024-03-22T08:58:19;11.40;99.90
21612;DHT22;47005;52.292;13.452;2024-03-22T09:00:45;11.40;99.90
21612;DHT22;47005;52.292;13.452;2024-03-22T09:03:11;11.40;99.90
21612;DHT22;47005;52.292;13.452;2024-03-22T09:05:36;11.40;99.90
21612;DHT22;47005;52.292;13.452;2024-03-22T09:08:03;11.50;99.90
21612;DHT22;47005;52.292;13.452;2024-03-22T09:10:29;11.50;99.90
21612;DHT22;47005;52.292;13.452;2024-03-22T09:12:55;11.50;99.80
21612;DHT22;47005;52.292;13.452;2024-03-22T09:15:21;11.50;99.80
21612;DHT22;47005;52.292;13.452;2024-03-22T09:17:47;11.50;99.90
21612;DHT22;47005;52.292;13.452;2024-03-22T09:20:13;11.60;99.90
21612;DHT22;47005;52.292;13.452;2024-03-22T09:22:39;11.60;99.90
21612;DHT22;47005;52.292;13.452;2024-03-22T09:25:05;11.60;99.90
21612;DHT22;47005;52.292;13.452;2024-03-22T09:27:32;11.60;99.90
21612;DHT22;47005;52.292;13.452;2024-03-22T09:29:58;11.70;99.90
21612;DHT22;47005;52.292;13.452;2024-03-22T09:32:23;11.70;99.80
21612;DHT22;47005;52.292;13.452;2024-03-22T09:34:49;11.70;99.70
21612;DHT22;47005;52.292;13.452;2024-03-22T09:37:15;11.70;99.70
21612;DHT22;47005;52.292;13.452;2024-03-22T09:39:41;11.80;99.80
21612;DHT22;47005;52.292;13.452;2024-03-22T09:42:07;11.80;99.80
21612;DHT22;47005;52.292;13.452;2024-03-22T09:44:33;11.80;99.60
21612;DHT22;47005;52.292;13.452;2024-03-22T09:47:00;11.80;99.70
21612;DHT22;47005;52.292;13.452;2024-03-22T09:49:26;11.90;99.60
21612;DHT22;47005;52.292;13.452;2024-03-22T09:51:52;11.90;99.50
21612;DHT22;47005;52.292;13.452;2024-03-22T09:54:18;12.00;99.60
21612;DHT22;47005;52.292;13.452;2024-03-22T09:56:46;12.00;99.40
21612;DHT22;47005;52.292;13.452;2024-03-22T09:59:13;12.10;99.40
21612;DHT22;47005;52.292;13.452;2024-03-22T10:01:40;12.10;99.40
21612;DHT22;47005;52.292;13.452;2024-03-22T10:04:06;12.20;99.50
21612;DHT22;47005;52.292;13.452;2024-03-22T10:06:34;12.20;99.50
21612;DHT22;47005;52.292;13.452;2024-03-22T10:09:01;12.20;99.50
21612;DHT22;47005;52.292;13.452;2024-03-22T10:11:27;12.30;99.40
21612;DHT22;47005;52.292;13.452;2024-03-22T10:13:53;12.30;99.30
21612;DHT22;47005;52.292;13.452;2024-03-22T10:16:23;12.30;98.90
21612;DHT22;47005;52.292;13.452;2024-03-22T10:18:49;12.30;98.50
21612;DHT22;47005;52.292;13.452;2024-03-22T10:21:18;12.40;98.70
21612;DHT22;47005;52.292;13.452;2024-03-22T10:23:44;12.40;98.90
21612;DHT22;47005;52.292;13.452;2024-03-22T10:26:12;12.40;98.90
21612;DHT22;47005;52.292;13.452;2024-03-22T10:28:44;12.40;98.90
21612;DHT22;47005;52.292;13.452;2024-03-22T10:31:12;12.40;98.80
21612;DHT22;47005;52.292;13.452;2024-03-22T10:33:38;12.40;98.70
21612;DHT22;47005;52.292;13.452;2024-03-22T10:36:06;12.40;98.60
21612;DHT22;47005;52.292;13.452;2024-03-22T10:38:35;12.50;98.80
21612;DHT22;47005;52.292;13.452;2024-03-22T10:41:01;12.50;98.80
21612;DHT22;47005;52.292;13.452;2024-03-22T10:43:27;12.50;98.80
21612;DHT22;47005;52.292;13.452;2024-03-22T10:45:57;12.50;98.90
21612;DHT22;47005;52.292;13.452;2024-03-22T10:48:26;12.50;98.90
21612;DHT22;47005;52.292;13.452;2024-03-22T10:50:55;12.60;98.90
21612;DHT22;47005;52.292;13.452;2024-03-22T10:53:25;12.60;98.80
21612;DHT22;47005;52.292;13.452;2024-03-22T10:55:53;12.60;98.80
21612;DHT22;47005;52.292;13.452;2024-03-22T10:58:22;12.70;98.90
21612;DHT22;47005;52.292;13.452;2024-03-22T11:00:52;12.80;98.70
21612;DHT22;47005;52.292;13.452;2024-03-22T11:03:25;12.80;98.80
21612;DHT22;47005;52.292;13.452;2024-03-22T11:05:55;12.80;98.40
21612;DHT22;47005;52.292;13.452;2024-03-22T11:08:26;12.90;98.60
21612;DHT22;47005;52.292;13.452;2024-03-22T11:10:52;13.00;98.70
21612;DHT22;47005;52.292;13.452;2024-03-22T11:13:18;13.10;98.60
21612;DHT22;47005;52.292;13.452;2024-03-22T11:15:47;13.10;98.70
21612;DHT22;47005;52.292;13.452;2024-03-22T11:18:13;13.10;98.40
21612;DHT22;47005;52.292;13.452;2024-03-22T11:20:39;13.20;98.50
21612;DHT22;47005;52.292;13.452;2024-03-22T11:23:05;13.20;98.30
21612;DHT22;47005;52.292;13.452;2024-03-22T11:25:34;13.30;98.20
21612;DHT22;47005;52.292;13.452;2024-03-22T11:28:00;13.30;98.20
21612;DHT22;47005;52.292;13.452;2024-03-22T11:30:31;13.30;98.10
21612;DHT22;47005;52.292;13.452;2024-03-22T11:33:00;13.30;98.30
21612;DHT22;47005;52.292;13.452;2024-03-22T11:35:26;13.30;98.10
21612;DHT22;47005;52.292;13.452;2024-03-22T11:37:51;13.30;98.20
21612;DHT22;47005;52.292;13.452;2024-03-22T11:40:17;13.30;98.30
21612;DHT22;47005;52.292;13.452;2024-03-22T11:42:47;13.30;98.30
21612;DHT22;47005;52.292;13.452;2024-03-22T11:45:16;13.30;98.50
21612;DHT22;47005;52.292;13.452;2024-03-22T11:47:43;13.40;98.50
21612;DHT22;47005;52.292;13.452;2024-03-22T11:50:11;13.40;98.50
21612;DHT22;47005;52.292;13.452;2024-03-22T11:52:43;13.40;98.50
21612;DHT22;47005;52.292;13.452;2024-03-22T11:55:10;13.40;98.50
21612;DHT22;47005;52.292;13.452;2024-03-22T11:57:36;13.40;98.30
21612;DHT22;47005;52.292;13.452;2024-03-22T12:00:03;13.50;98.60
21612;DHT22;47005;52.292;13.452;2024-03-22T12:02:31;13.50;98.60
21612;DHT22;47005;52.292;13.452;2024-03-22T12:04:57;13.50;98.40
21612;DHT22;47005;52.292;13.452;2024-03-22T12:07:24;13.50;98.40
21612;DHT22;47005;52.292;13.452;2024-03-22T12:09:49;13.60;98.30
21612;DHT22;47005;52.292;13.452;2024-03-22T12:12:15;13.60;98.10
21612;DHT22;47005;52.292;13.452;2024-03-22T12:14:41;13.60;98.10
21612;DHT22;47005;52.292;13.452;2024-03-22T12:17:07;13.60;98.20
21612;DHT22;47005;52.292;13.452;2024-03-22T12:19:33;13.60;98.30
21612;DHT22;47005;52.292;13.452;2024-03-22T12:22:00;13.60;98.20
21612;DHT22;47005;52.292;13.452;2024-03-22T12:24:26;13.50;98.30
21612;DHT22;47005;52.292;13.452;2024-03-22T12:26:53;13.50;98.50
21612;DHT22;47005;52.292;13.452;2024-03-22T12:29:19;13.50;98.60
21612;DHT22;47005;52.292;13.452;2024-03-22T12:31:46;13.50;98.90
21612;DHT22;47005;52.292;13.452;2024-03-22T12:34:12;13.50;99.20
21612;DHT22;47005;52.292;13.452;2024-03-22T12:36:38;13.50;99.20
21612;DHT22;47005;52.292;13.452;2024-03-22T12:39:04;13.50;99.60
21612;DHT22;47005;52.292;13.452;2024-03-22T12:41:30;13.50;99.80
21612;DHT22;47005;52.292;13.452;2024-03-22T12:43:57;13.50;99.90
21612;DHT22;47005;52.292;13.452;2024-03-22T12:46:22;13.50;99.90
21612;DHT22;47005;52.292;13.452;2024-03-22T12:48:49;13.50;99.90
21612;DHT22;47005;52.292;13.452;2024-03-22T12:51:15;13.40;99.90
21612;DHT22;47005;52.292;13.452;2024-03-22T12:53:41;13.40;99.90
21612;DHT22;47005;52.292;13.452;2024-03-22T12:56:07;13.40;99.90
21612;DHT22;47005;52.292;13.452;2024-03-22T12:58:33;13.40;99.90
21612;DHT22;47005;52.292;13.452;2024-03-22T13:00:59;13.40;99.90
21612;DHT22;47005;52.292;13.452;2024-03-22T13:03:26;13.40;99.90
21612;DHT22;47005;52.292;13.452;2024-03-22T13:05:52;13.30;99.90
21612;DHT22;47005;52.292;13.452;2024-03-22T13:08:19;13.30;99.90
21612;DHT22;47005;52.292;13.452;2024-03-22T13:10:48;13.20;99.90
21612;DHT22;47005;52.292;13.452;2024-03-22T13:13:14;13.20;99.90
21612;DHT22;47005;52.292;13.452;2024-03-22T13:15:42;13.20;99.90
21612;DHT22;47005;52.292;13.452;2024-03-22T13:18:08;13.20;99.90
21612;DHT22;47005;52.292;13.452;2024-03-22T13:20:35;13.10;99.90
21612;DHT22;47005;52.292;13.452;2024-03-22T13:23:01;13.00;99.90
21612;DHT22;47005;52.292;13.452;2024-03-22T13:25:27;13.10;99.90
21612;DHT22;47005;52.292;13.452;2024-03-22T13:27:53;13.00;99.90
21612;DHT22;47005;52.292;13.452;2024-03-22T13:30:19;13.00;99.90
21612;DHT22;47005;52.292;13.452;2024-03-22T13:32:45;13.00;99.90
21612;DHT22;47005;52.292;13.452;2024-03-22T13:35:10;13.00;99.90
21612;DHT22;47005;52.292;13.452;2024-03-22T13:37:36;13.00;99.90
21612;DHT22;47005;52.292;13.452;2024-03-22T13:40:02;12.90;99.90
21612;DHT22;47005;52.292;13.452;2024-03-22T13:42:28;12.90;99.90
21612;DHT22;47005;52.292;13.452;2024-03-22T13:44:53;12.90;99.90
21612;DHT22;47005;52.292;13.452;2024-03-22T13:47:20;12.90;99.90
21612;DHT22;47005;52.292;13.452;2024-03-22T13:49:46;12.90;99.90
21612;DHT22;47005;52.292;13.452;2024-03-22T13:52:12;12.90;99.90
21612;DHT22;47005;52.292;13.452;2024-03-22T13:54:37;12.90;99.90
21612;DHT22;47005;52.292;13.452;2024-03-22T13:57:03;12.90;99.90
21612;DHT22;47005;52.292;13.452;2024-03-22T13:59:29;12.90;99.90
21612;DHT22;47005;52.292;13.452;2024-03-22T14:01:55;12.90;99.90
21612;DHT22;47005;52.292;13.452;2024-03-22T14:04:22;12.90;99.90
21612;DHT22;47005;52.292;13.452;2024-03-22T14:06:48;13.00;99.90
21612;DHT22;47005;52.292;13.452;2024-03-22T14:09:14;12.90;99.90
21612;DHT22;47005;52.292;13.452;2024-03-22T14:11:41;12.90;99.90
21612;DHT22;47005;52.292;13.452;2024-03-22T14:14:11;12.90;99.90
21612;DHT22;47005;52.292;13.452;2024-03-22T14:16:40;13.00;99.90
21612;DHT22;47005;52.292;13.452;2024-03-22T14:19:09;13.00;99.90
21612;DHT22;47005;52.292;13.452;2024-03-22T14:21:35;13.00;99.90
21612;DHT22;47005;52.292;13.452;2024-03-22T14:24:01;13.00;99.90
21612;DHT22;47005;52.292;13.452;2024-03-22T14:26:28;13.00;99.90
21612;DHT22;47005;52.292;13.452;2024-03-22T14:28:54;13.00;99.90
21612;DHT22;47005;52.292;13.452;2024-03-22T14:31:19;13.00;99.90
21612;DHT22;47005;52.292;13.452;2024-03-22T14:33:45;13.00;99.90
21612;DHT22;47005;52.292;13.452;2024-03-22T14:36:11;13.00;99.90
21612;DHT22;47005;52.292;13.452;2024-03-22T14:38:38;13.10;99.90
21612;DHT22;47005;52.292;13.452;2024-03-22T14:41:04;13.00;99.90
21612;DHT22;47005;52.292;13.452;2024-03-22T14:43:30;13.10;99.90
21612;DHT22;47005;52.292;13.452;2024-03-22T14:46:00;13.10;99.90
21612;DHT22;47005;52.292;13.452;2024-03-22T14:48:27;13.10;99.90
21612;DHT22;47005;52.292;13.452;2024-03-22T14:50:52;13.10;99.90
21612;DHT22;47005;52.292;13.452;2024-03-22T14:53:22;13.10;99.90
21612;DHT22;47005;52.292;13.452;2024-03-22T14:55:58;13.00;99.90
21612;DHT22;47005;52.292;13.452;2024-03-22T14:58:27;13.10;99.90
21612;DHT22;47005;52.292;13.452;2024-03-22T15:00:57;13.10;99.90
21612;DHT22;47005;52.292;13.452;2024-03-22T15:03:23;13.00;99.90
21612;DHT22;47005;52.292;13.452;2024-03-22T15:05:53;13.00;99.90
21612;DHT22;47005;52.292;13.452;2024-03-22T15:08:19;13.00;99.90
21612;DHT22;47005;52.292;13.452;2024-03-22T15:10:45;13.00;99.90